createdAt,value
2022-12-18T00:00:16.586Z,101163.16
2022-12-18T00:03:06.912Z,101151.91
2022-12-18T00:05:55.242Z,101153.47
2022-12-18T00:08:46.201Z,101146.59
2022-12-18T00:11:34.496Z,101041.72
2022-12-18T00:14:22.550Z,101137.69
2022-12-18T00:17:10.582Z,101142.97
2022-12-18T00:19:58.677Z,101141.44
2022-12-18T00:22:47.118Z,101144.38
2022-12-18T00:25:36.992Z,101138.25
2022-12-18T00:28:25.248Z,101132.25
2022-12-18T00:31:16.010Z,101138.66
2022-12-18T00:34:05.363Z,101149.88
2022-12-18T00:36:53.916Z,101152.53
2022-12-18T00:39:43.871Z,101146.91
2022-12-18T00:42:50.742Z,101151.75
2022-12-18T00:45:39.487Z,101144.91
2022-12-18T00:48:27.992Z,101142.91
2022-12-18T00:51:16.388Z,101149.44
2022-12-18T00:54:04.599Z,101154.91
2022-12-18T00:56:52.883Z,101156.84
2022-12-18T00:59:42.401Z,101153.19
2022-12-18T01:02:30.760Z,101156.72
2022-12-18T01:05:19.057Z,101156.56
2022-12-18T01:08:07.291Z,101153.63
2022-12-18T01:10:55.674Z,101156.81
2022-12-18T01:13:44.723Z,101144.66
2022-12-18T01:16:34.472Z,101138.56
2022-12-18T01:19:22.780Z,101148.41
2022-12-18T01:22:11.216Z,101142.84
2022-12-18T01:24:59.723Z,101139.19
2022-12-18T01:27:48.037Z,101146.28
2022-12-18T01:30:36.576Z,101141.34
2022-12-18T01:33:26.315Z,101146.09
2022-12-18T01:36:19.965Z,101116.94
2022-12-18T01:39:10.336Z,101156.41
2022-12-18T01:42:08.802Z,101157.94
2022-12-18T01:45:05.066Z,101150.16
2022-12-18T01:47:56.449Z,101144.66
2022-12-18T01:50:46.308Z,101148.63
2022-12-18T01:53:35.159Z,101152.84
2022-12-18T01:56:24.795Z,101147.28
2022-12-18T01:59:15.573Z,101158.41
2022-12-18T02:02:05.578Z,101182.94
2022-12-18T02:04:54.658Z,101163.06
2022-12-18T02:07:59.276Z,101145.25
2022-12-18T02:10:56.329Z,101151.44
2022-12-18T02:13:53.584Z,101166.78
2022-12-18T02:16:50.859Z,101162.53
2022-12-18T02:19:55.624Z,101176.38
2022-12-18T02:23:03.633Z,101176.84
2022-12-18T02:26:17.331Z,101144.50
2022-12-18T02:29:17.140Z,101167.34
2022-12-18T02:32:12.044Z,101163.19
2022-12-18T02:35:04.282Z,101166.28
2022-12-18T02:37:56.470Z,101161.31
2022-12-18T02:40:50.755Z,101141.72
2022-12-18T02:43:52.670Z,101124.53
2022-12-18T02:46:46.400Z,101132.69
2022-12-18T02:49:47.491Z,101095.97
2022-12-18T02:52:47.488Z,101133.78
2022-12-18T02:55:52.913Z,101126.22
2022-12-18T02:59:04.560Z,101108.72
2022-12-18T03:02:09.972Z,101104.53
2022-12-18T03:05:13.657Z,101120.56
2022-12-18T03:08:11.532Z,101129.94
2022-12-18T03:11:09.706Z,101130.72
2022-12-18T03:14:03.177Z,101123.97
2022-12-18T03:16:55.760Z,101134.81
2022-12-18T03:19:48.178Z,101098.91
2022-12-18T03:22:39.941Z,101149.13
2022-12-18T03:25:31.362Z,101153.44
2022-12-18T03:28:24.462Z,101170.84
2022-12-18T03:31:26.472Z,101167.16
2022-12-18T03:34:19.898Z,101150.63
2022-12-18T03:37:10.300Z,101138.13
2022-12-18T03:40:00.082Z,101119.09
2022-12-18T03:42:54.637Z,101063.56
2022-12-18T03:45:50.346Z,101108.69
2022-12-18T03:48:48.831Z,101139.97
2022-12-18T03:51:45.609Z,101152.81
2022-12-18T03:54:43.540Z,101145.16
2022-12-18T03:57:37.012Z,101130.59
2022-12-18T04:00:27.883Z,101135.50
2022-12-18T04:03:36.419Z,101128.09
2022-12-18T04:06:29.535Z,101128.28
2022-12-18T04:09:23.871Z,101133.94
2022-12-18T04:12:16.387Z,101146.09
2022-12-18T04:15:12.185Z,101148.81
2022-12-18T04:18:02.247Z,101150.06
2022-12-18T04:21:05.212Z,101148.88
2022-12-18T04:23:59.216Z,101142.28
2022-12-18T04:26:48.467Z,101095.31
2022-12-18T04:29:39.484Z,101136.09
2022-12-18T04:32:39.261Z,101077.31
2022-12-18T04:35:29.014Z,101125.03
2022-12-18T04:38:21.966Z,101113.78
2022-12-18T04:41:19.505Z,101128.28
2022-12-18T04:44:11.235Z,101129.13
2022-12-18T04:47:00.810Z,101119.53
2022-12-18T04:49:50.182Z,101122.97
2022-12-18T04:52:39.312Z,101125.53
2022-12-18T04:55:28.739Z,101133.84
2022-12-18T04:58:19.271Z,101126.81
2022-12-18T05:01:11.654Z,101131.50
2022-12-18T05:04:05.868Z,101123.97
2022-12-18T05:06:55.234Z,101130.84
2022-12-18T05:09:44.792Z,101129.59
2022-12-18T05:12:59.323Z,101136.69
2022-12-18T05:16:01.284Z,101142.50
2022-12-18T05:18:53.720Z,101142.81
2022-12-18T05:21:47.959Z,101144.91
2022-12-18T05:24:38.886Z,101158.53
2022-12-18T05:27:28.034Z,101156.38
2022-12-18T05:30:18.680Z,101174.44
2022-12-18T05:33:12.659Z,101168.44
2022-12-18T05:36:06.122Z,101166.00
2022-12-18T05:38:55.295Z,101159.94
2022-12-18T05:41:44.355Z,101150.06
2022-12-18T05:44:35.827Z,101139.13
2022-12-18T05:47:25.504Z,101145.72
2022-12-18T05:50:16.500Z,101148.75
2022-12-18T05:53:06.958Z,101149.53
2022-12-18T05:55:56.174Z,101148.69
2022-12-18T05:58:54.439Z,101147.88
2022-12-18T06:01:44.439Z,101150.94
2022-12-18T06:04:33.202Z,101148.19
2022-12-18T06:07:23.754Z,101151.47
2022-12-18T06:10:12.991Z,101146.59
2022-12-18T06:13:01.645Z,101078.25
2022-12-18T06:15:50.170Z,101156.81
2022-12-18T06:18:38.601Z,101163.13
2022-12-18T06:21:26.991Z,101155.59
2022-12-18T06:24:17.713Z,101167.13
2022-12-18T06:27:06.691Z,101171.00
2022-12-18T06:29:59.721Z,101172.63
2022-12-18T06:32:56.682Z,101164.38
2022-12-18T06:35:49.366Z,101175.00
2022-12-18T06:38:41.132Z,101186.47
2022-12-18T06:41:31.685Z,101189.53
2022-12-18T06:44:20.953Z,101195.03
2022-12-18T06:47:10.037Z,101197.94
2022-12-18T06:49:58.912Z,101197.09
2022-12-18T06:52:47.445Z,101192.97
2022-12-18T06:55:36.377Z,101207.22
2022-12-18T06:58:26.887Z,101192.16
2022-12-18T07:01:16.488Z,101213.22
2022-12-18T07:03:45.601Z,101217.91
2022-12-18T07:06:19.836Z,101221.41
2022-12-18T07:08:49.089Z,101222.53
2022-12-18T07:11:18.677Z,101234.28
2022-12-18T07:13:48.790Z,101159.53
2022-12-18T07:16:24.662Z,101232.72
2022-12-18T07:18:54.520Z,101245.34
2022-12-18T07:21:25.391Z,101233.44
2022-12-18T07:23:54.164Z,101234.56
2022-12-18T07:26:24.078Z,101239.97
2022-12-18T07:28:58.949Z,101237.19
2022-12-18T07:31:29.065Z,101228.34
2022-12-18T07:33:58.471Z,101239.91
2022-12-18T07:36:28.338Z,101236.50
2022-12-18T07:38:58.387Z,101229.22
2022-12-18T07:41:27.651Z,101222.34
2022-12-18T07:44:01.790Z,101209.44
2022-12-18T07:46:32.448Z,101216.47
2022-12-18T07:49:14.531Z,101214.88
2022-12-18T07:51:50.708Z,101209.81
2022-12-18T07:54:28.200Z,101204.00
2022-12-18T07:57:33.751Z,101217.53
2022-12-18T08:00:09.146Z,101211.19
2022-12-18T08:02:45.054Z,101220.63
2022-12-18T08:05:14.845Z,101207.19
2022-12-18T08:07:46.509Z,101220.59
2022-12-18T08:10:16.532Z,101225.31
2022-12-18T08:12:45.783Z,101219.75
2022-12-18T08:15:20.662Z,101222.97
2022-12-18T08:17:55.135Z,101233.78
2022-12-18T08:20:33.453Z,101237.31
2022-12-18T08:23:03.722Z,101242.66
2022-12-18T08:25:33.993Z,101241.00
2022-12-18T08:28:03.240Z,101229.91
2022-12-18T08:30:39.049Z,101238.31
2022-12-18T08:33:09.520Z,101237.22
2022-12-18T08:35:45.988Z,101232.97
2022-12-18T08:38:17.797Z,101242.69
2022-12-18T08:40:48.177Z,101231.88
2022-12-18T08:43:46.296Z,101234.28
2022-12-18T08:46:24.322Z,101225.03
2022-12-18T08:48:59.977Z,101210.66
2022-12-18T08:51:45.841Z,101203.25
2022-12-18T08:54:33.011Z,101194.50
2022-12-18T08:57:05.774Z,101199.84
2022-12-18T08:59:37.293Z,101209.25
2022-12-18T09:02:17.027Z,101204.13
2022-12-18T09:04:53.809Z,101192.94
2022-12-18T09:07:28.798Z,101197.03
2022-12-18T09:09:57.382Z,101187.78
2022-12-18T09:12:25.911Z,101172.94
2022-12-18T09:14:54.216Z,101172.28
2022-12-18T09:17:24.607Z,101165.91
2022-12-18T09:19:53.197Z,101156.06
2022-12-18T09:22:21.574Z,101166.53
2022-12-18T09:24:50.846Z,101179.66
2022-12-18T09:27:19.102Z,101174.97
2022-12-18T09:29:47.069Z,101167.66
2022-12-18T09:32:21.999Z,101178.38
2022-12-18T09:34:51.799Z,101189.41
2022-12-18T09:37:20.354Z,101189.41
2022-12-18T09:39:48.264Z,101195.50
2022-12-18T09:42:22.015Z,101210.50
2022-12-18T09:44:52.955Z,101198.66
2022-12-18T09:47:26.014Z,101206.00
2022-12-18T09:49:59.429Z,101210.06
2022-12-18T09:52:34.628Z,101217.97
2022-12-18T09:55:08.626Z,101223.13
2022-12-18T09:57:42.743Z,101226.94
2022-12-18T10:00:19.899Z,101232.22
2022-12-18T10:02:49.131Z,101248.16
2022-12-18T10:05:22.715Z,101201.69
2022-12-18T10:08:01.763Z,101236.78
2022-12-18T10:10:39.440Z,101228.53
2022-12-18T10:13:17.466Z,101225.75
2022-12-18T10:15:56.985Z,101228.84
2022-12-18T10:18:40.305Z,101225.34
2022-12-18T10:21:16.903Z,101221.78
2022-12-18T10:23:53.635Z,101222.31
2022-12-18T10:26:22.821Z,101224.00
2022-12-18T10:28:51.835Z,101215.97
2022-12-18T10:31:24.666Z,101218.91
2022-12-18T10:33:55.638Z,101212.81
2022-12-18T10:36:26.783Z,101209.41
2022-12-18T10:38:55.096Z,101208.50
2022-12-18T10:41:29.516Z,101211.34
2022-12-18T10:44:14.204Z,101207.13
2022-12-18T10:46:43.334Z,101200.25
2022-12-18T10:49:23.337Z,101193.25
2022-12-18T10:52:05.705Z,101188.53
2022-12-18T10:54:35.879Z,101184.94
2022-12-18T10:57:17.044Z,101197.16
2022-12-18T10:59:53.697Z,101173.47
2022-12-18T11:02:30.499Z,101199.75
2022-12-18T11:05:01.425Z,101194.31
2022-12-18T11:07:50.045Z,101193.38
2022-12-18T11:10:18.839Z,101196.81
2022-12-18T11:12:46.986Z,101192.03
2022-12-18T11:15:21.736Z,101186.13
2022-12-18T11:17:52.645Z,101197.94
2022-12-18T11:20:32.618Z,101202.00
2022-12-18T11:23:04.465Z,101209.63
2022-12-18T11:25:35.633Z,101209.22
2022-12-18T11:28:07.725Z,101199.31
2022-12-18T11:30:36.767Z,101195.19
2022-12-18T11:33:08.377Z,101192.50
2022-12-18T11:35:51.508Z,101201.88
2022-12-18T11:38:26.351Z,101205.97
2022-12-18T11:41:00.523Z,101203.56
2022-12-18T11:43:32.001Z,101214.13
2022-12-18T11:46:06.859Z,101220.97
2022-12-18T11:48:40.537Z,101209.66
2022-12-18T11:51:16.848Z,101192.34
2022-12-18T11:53:49.162Z,101182.78
2022-12-18T11:56:32.024Z,101173.72
2022-12-18T11:59:11.234Z,101173.47
2022-12-18T12:01:50.849Z,101168.19
2022-12-18T12:04:41.155Z,101172.06
2022-12-18T12:07:22.050Z,101173.66
2022-12-18T12:10:01.286Z,101186.09
2022-12-18T12:12:49.038Z,101193.94
2022-12-18T12:15:29.412Z,101188.97
2022-12-18T12:18:11.319Z,101185.66
2022-12-18T12:20:49.332Z,101181.09
2022-12-18T12:23:27.891Z,101189.25
2022-12-18T12:26:06.084Z,101189.81
2022-12-18T12:28:53.062Z,101196.50
2022-12-18T12:31:31.253Z,101195.38
2022-12-18T12:34:09.333Z,101186.19
2022-12-18T12:36:47.980Z,101184.41
2022-12-18T12:39:19.677Z,101181.03
2022-12-18T12:42:06.727Z,101182.03
2022-12-18T12:44:43.236Z,101174.53
2022-12-18T12:47:17.341Z,101161.53
2022-12-18T12:49:51.611Z,101161.59
2022-12-18T12:52:29.552Z,101162.09
2022-12-18T12:54:58.636Z,101172.56
2022-12-18T12:57:35.423Z,101166.91
2022-12-18T13:00:10.222Z,101141.03
2022-12-18T13:02:44.640Z,101124.72
2022-12-18T13:05:22.233Z,101116.19
2022-12-18T13:07:54.688Z,101121.47
2022-12-18T13:10:36.152Z,101108.66
2022-12-18T13:13:09.036Z,101109.41
2022-12-18T13:15:41.098Z,101108.44
2022-12-18T13:18:16.686Z,101095.66
2022-12-18T13:20:53.667Z,101085.25
2022-12-18T13:23:37.213Z,101086.09
2022-12-18T13:26:30.676Z,101090.16
2022-12-18T13:29:02.805Z,101086.97
2022-12-18T13:32:02.307Z,101088.09
2022-12-18T13:34:32.221Z,101076.97
2022-12-18T13:37:34.007Z,101080.50
2022-12-18T13:40:02.131Z,101071.81
2022-12-18T13:43:05.805Z,101080.03
2022-12-18T13:45:42.581Z,101076.88
2022-12-18T13:48:19.307Z,101081.94
2022-12-18T13:50:54.367Z,101083.31
2022-12-18T13:53:27.868Z,101070.41
2022-12-18T13:55:56.011Z,101081.47
2022-12-18T13:58:24.259Z,101081.75
2022-12-18T14:00:53.982Z,101082.56
2022-12-18T14:03:24.617Z,101082.25
2022-12-18T14:05:58.032Z,101083.69
2022-12-18T14:08:29.443Z,101034.22
2022-12-18T14:10:58.416Z,101076.63
2022-12-18T14:13:30.074Z,101073.84
2022-12-18T14:16:03.787Z,101067.78
2022-12-18T14:18:40.645Z,101068.88
2022-12-18T14:21:17.646Z,101068.41
2022-12-18T14:23:46.292Z,101065.22
2022-12-18T14:26:28.087Z,101079.63
2022-12-18T14:28:56.489Z,101081.72
2022-12-18T14:31:28.047Z,101077.25
2022-12-18T14:33:56.200Z,101081.78
2022-12-18T14:36:26.648Z,101090.66
2022-12-18T14:38:55.759Z,101098.38
2022-12-18T14:41:24.456Z,101102.19
2022-12-18T14:43:54.771Z,101033.81
2022-12-18T14:46:37.644Z,101092.25
2022-12-18T14:49:17.657Z,101084.41
2022-12-18T14:51:50.525Z,101093.47
2022-12-18T14:54:19.928Z,101088.53
2022-12-18T14:56:50.505Z,101094.75
2022-12-18T14:59:24.469Z,101090.78
2022-12-18T15:02:01.354Z,101092.16
2022-12-18T15:04:32.861Z,101077.06
2022-12-18T15:07:13.355Z,101069.47
2022-12-18T15:09:43.709Z,101064.97
2022-12-18T15:12:34.069Z,101063.88
2022-12-18T15:15:01.797Z,101061.06
2022-12-18T15:17:31.059Z,101054.84
2022-12-18T15:20:03.160Z,101048.59
2022-12-18T15:22:32.726Z,101053.41
2022-12-18T15:25:01.403Z,101050.91
2022-12-18T15:27:32.923Z,101060.72
2022-12-18T15:30:19.158Z,101052.34
2022-12-18T15:32:49.764Z,101057.16
2022-12-18T15:35:20.671Z,101049.41
2022-12-18T15:37:49.400Z,101048.84
2022-12-18T15:40:19.267Z,101047.41
2022-12-18T15:43:06.701Z,101056.41
2022-12-18T15:45:34.645Z,101054.72
2022-12-18T15:48:03.894Z,101058.22
2022-12-18T15:50:31.674Z,101045.88
2022-12-18T15:52:59.880Z,100951.41
2022-12-18T15:55:45.570Z,101048.03
2022-12-18T15:58:13.307Z,101048.84
2022-12-18T16:00:42.923Z,101052.09
2022-12-18T16:03:12.326Z,101059.41
2022-12-18T16:05:40.219Z,101055.84
2022-12-18T16:08:07.833Z,101049.47
2022-12-18T16:10:36.780Z,101046.66
2022-12-18T16:13:04.483Z,101049.66
2022-12-18T16:15:32.164Z,101050.22
2022-12-18T16:17:59.811Z,100955.94
2022-12-18T16:20:28.872Z,101033.91
2022-12-18T16:22:56.796Z,101040.19
2022-12-18T16:25:26.383Z,101036.00
2022-12-18T16:27:56.030Z,101042.50
2022-12-18T16:30:25.119Z,101043.53
2022-12-18T16:32:53.790Z,101032.78
2022-12-18T16:35:21.674Z,101036.09
2022-12-18T16:37:50.775Z,101033.69
2022-12-18T16:40:19.513Z,101029.16
2022-12-18T16:42:48.131Z,101032.31
2022-12-18T16:45:18.189Z,101026.41
2022-12-18T16:47:46.208Z,101021.34
2022-12-18T16:50:14.405Z,101021.34
2022-12-18T16:52:42.283Z,101019.00
2022-12-18T16:55:11.664Z,101011.50
2022-12-18T16:57:39.408Z,101007.00
2022-12-18T17:00:08.709Z,101005.88
2022-12-18T17:02:37.571Z,101002.31
2022-12-18T17:05:06.253Z,101006.97
2022-12-18T17:07:34.009Z,101013.19
2022-12-18T17:10:03.050Z,101015.72
2022-12-18T17:12:32.098Z,101006.56
2022-12-18T17:14:59.769Z,101006.38
2022-12-18T17:17:27.411Z,100999.94
2022-12-18T17:19:55.301Z,101001.81
2022-12-18T17:22:24.006Z,101000.47
2022-12-18T17:24:51.959Z,100970.31
2022-12-18T17:27:19.777Z,101000.31
2022-12-18T17:29:49.242Z,101010.88
2022-12-18T17:32:17.524Z,101009.56
2022-12-18T17:34:45.436Z,101016.53
2022-12-18T17:37:13.160Z,101013.03
2022-12-18T17:39:41.986Z,101003.53
2022-12-18T17:42:14.943Z,101014.28
2022-12-18T17:44:44.062Z,101005.91
2022-12-18T17:47:13.750Z,100998.63
2022-12-18T17:49:41.609Z,101002.06
2022-12-18T17:52:09.465Z,101001.47
2022-12-18T17:54:39.673Z,100999.03
2022-12-18T17:57:07.640Z,100996.25
2022-12-18T17:59:35.259Z,100984.28
2022-12-18T18:02:03.267Z,100986.72
2022-12-18T18:04:32.550Z,100985.41
2022-12-18T18:07:00.328Z,100988.06
2022-12-18T18:09:28.283Z,100993.94
2022-12-18T18:12:15.074Z,100995.81
2022-12-18T18:14:42.883Z,100982.91
2022-12-18T18:17:11.200Z,100981.47
2022-12-18T18:19:41.955Z,100966.78
2022-12-18T18:22:11.916Z,100973.53
2022-12-18T18:24:39.686Z,100971.72
2022-12-18T18:27:07.317Z,100973.63
2022-12-18T18:29:35.182Z,100978.28
2022-12-18T18:32:02.942Z,100985.81
2022-12-18T18:34:32.278Z,100981.25
2022-12-18T18:37:02.973Z,100986.06
2022-12-18T18:39:31.221Z,100955.50
2022-12-18T18:42:00.724Z,100993.13
2022-12-18T18:44:30.776Z,100997.34
2022-12-18T18:46:59.276Z,100989.63
2022-12-18T18:49:28.292Z,101000.56
2022-12-18T18:51:56.994Z,100999.59
2022-12-18T18:54:26.141Z,101000.69
2022-12-18T18:59:41.554Z,100990.22
2022-12-18T19:02:12.440Z,100975.31
2022-12-18T19:04:44.718Z,100975.03
2022-12-18T19:07:15.506Z,100968.91
2022-12-18T19:10:04.807Z,100967.59
2022-12-18T19:12:51.710Z,100947.06
2022-12-18T19:15:19.416Z,100950.91
2022-12-18T19:17:47.962Z,100953.59
2022-12-18T19:20:16.327Z,100950.94
2022-12-18T19:22:46.103Z,100940.97
2022-12-18T19:25:38.097Z,100936.63
2022-12-18T19:28:21.262Z,100924.75
2022-12-18T19:30:57.293Z,100920.81
2022-12-18T19:33:43.695Z,100924.06
2022-12-18T19:36:14.631Z,100945.31
2022-12-18T19:38:45.004Z,100936.63
2022-12-18T19:41:15.420Z,100926.66
2022-12-18T19:43:43.773Z,100930.22
2022-12-18T19:46:14.043Z,100937.25
2022-12-18T19:48:42.601Z,100936.44
2022-12-18T19:51:14.764Z,100928.00
2022-12-18T19:53:42.511Z,100922.75
2022-12-18T19:56:12.575Z,100921.16
2022-12-18T19:58:41.905Z,100930.09
2022-12-18T20:01:09.972Z,100917.94
2022-12-18T20:03:40.400Z,100876.72
2022-12-18T20:06:09.714Z,100912.88
2022-12-18T20:08:37.467Z,100921.50
2022-12-18T20:11:05.609Z,100926.09
2022-12-18T20:13:34.119Z,100884.06
2022-12-18T20:16:03.387Z,100890.84
2022-12-18T20:18:31.193Z,100903.78
2022-12-18T20:20:58.959Z,100908.88
2022-12-18T20:23:28.776Z,100909.94
2022-12-18T20:25:58.771Z,100913.47
2022-12-18T20:28:26.591Z,100900.47
2022-12-18T20:31:00.309Z,100913.66
2022-12-18T20:33:29.702Z,100934.31
2022-12-18T20:36:02.704Z,100916.75
2022-12-18T20:38:31.394Z,100926.66
2022-12-18T20:41:02.235Z,100921.03
2022-12-18T20:43:30.006Z,100933.41
2022-12-18T20:46:03.039Z,100916.69
2022-12-18T20:48:33.319Z,100949.97
2022-12-18T20:51:03.841Z,100934.31
2022-12-18T20:53:32.083Z,100930.13
2022-12-18T20:55:59.953Z,100914.47
2022-12-18T20:58:27.751Z,100915.41
2022-12-18T21:01:03.782Z,100882.78
2022-12-18T21:03:52.620Z,100887.72
2022-12-18T21:06:42.019Z,100884.50
2022-12-18T21:09:38.289Z,100896.88
2022-12-18T21:12:40.255Z,100895.34
2022-12-18T21:15:32.137Z,100901.81
2022-12-18T21:18:20.136Z,100904.00
2022-12-18T21:21:09.439Z,100907.22
2022-12-18T21:23:57.644Z,100913.22
2022-12-18T21:26:46.980Z,100911.63
2022-12-18T21:29:35.119Z,100809.06
2022-12-18T21:32:23.649Z,100912.97
2022-12-18T21:35:13.218Z,100932.94
2022-12-18T21:38:03.867Z,100932.13
2022-12-18T21:40:53.769Z,100925.97
2022-12-18T21:43:59.529Z,100910.06
2022-12-18T21:46:55.641Z,100912.78
2022-12-18T21:49:46.240Z,100902.56
2022-12-18T21:52:34.200Z,100904.47
2022-12-18T21:55:23.490Z,100898.53
2022-12-18T21:58:11.498Z,100885.31
2022-12-18T22:00:59.449Z,100890.97
2022-12-18T22:03:48.043Z,100894.47
2022-12-18T22:06:36.136Z,100910.66
2022-12-18T22:09:26.317Z,100921.44
2022-12-18T22:12:34.997Z,100936.00
2022-12-18T22:15:23.111Z,100948.91
2022-12-18T22:18:14.196Z,100938.06
2022-12-18T22:21:02.636Z,100924.66
2022-12-18T22:23:54.201Z,100910.09
2022-12-18T22:26:42.822Z,100920.38
2022-12-18T22:29:49.705Z,100909.06
2022-12-18T22:32:37.640Z,100914.19
2022-12-18T22:35:26.005Z,100912.84
2022-12-18T22:38:13.951Z,100919.06
2022-12-18T22:41:04.578Z,100918.78
2022-12-18T22:43:52.503Z,100918.78
2022-12-18T22:46:44.999Z,100888.06
2022-12-18T22:49:35.185Z,100916.38
2022-12-18T22:52:25.018Z,100909.66
2022-12-18T22:55:13.255Z,100911.50
2022-12-18T22:58:01.272Z,100911.53
2022-12-18T23:00:49.257Z,100905.31
2022-12-18T23:03:38.559Z,100910.47
2022-12-18T23:06:28.533Z,100898.88
2022-12-18T23:09:18.234Z,100894.59
2022-12-18T23:12:06.973Z,100902.41
2022-12-18T23:14:55.129Z,100895.66
2022-12-18T23:17:43.093Z,100891.06
2022-12-18T23:20:32.372Z,100881.09
2022-12-18T23:23:20.402Z,100878.38
2022-12-18T23:26:11.677Z,100884.88
2022-12-18T23:29:01.285Z,100896.19
2022-12-18T23:31:49.301Z,100882.16
2022-12-18T23:34:37.275Z,100876.78
2022-12-18T23:37:57.137Z,100878.13
2022-12-18T23:40:34.476Z,100884.88
2022-12-18T23:43:22.427Z,100876.78
2022-12-18T23:46:14.010Z,100864.91
2022-12-18T23:49:03.954Z,100867.59
2022-12-18T23:51:55.006Z,100866.78
2022-12-18T23:54:44.260Z,100860.88
2022-12-18T23:57:32.191Z,100848.72
